createdAt,value
2018-12-12T00:00:08.703Z,6.437376
2018-12-12T00:00:21.089Z,9.656064
2018-12-12T00:00:33.469Z,9.656064
2018-12-12T00:00:45.858Z,9.656064
2018-12-12T00:00:58.248Z,9.656064
2018-12-12T00:01:10.624Z,6.437376
2018-12-12T00:01:22.989Z,8.04672
2018-12-12T00:01:35.372Z,8.04672
2018-12-12T00:01:47.753Z,8.04672
2018-12-12T00:02:00.136Z,8.04672
2018-12-12T00:02:12.661Z,4.828032
2018-12-12T00:02:25.026Z,8.04672
2018-12-12T00:02:37.557Z,9.656064
2018-12-12T00:02:49.930Z,9.656064
2018-12-12T00:03:02.318Z,9.656064
2018-12-12T00:03:14.706Z,11.265408
2018-12-12T00:03:27.093Z,14.484096
2018-12-12T00:03:39.452Z,14.484096
2018-12-12T00:03:51.819Z,14.484096
2018-12-12T00:04:04.179Z,14.484096
2018-12-12T00:04:16.547Z,6.437376
2018-12-12T00:04:28.906Z,6.437376
2018-12-12T00:04:41.446Z,6.437376
2018-12-12T00:04:53.830Z,6.437376
2018-12-12T00:05:06.284Z,8.04672
2018-12-12T00:05:18.656Z,11.265408
2018-12-12T00:05:31.190Z,11.265408
2018-12-12T00:05:43.587Z,11.265408
2018-12-12T00:05:55.955Z,11.265408
2018-12-12T00:06:09.226Z,16.09344
2018-12-12T00:06:21.593Z,17.702784
2018-12-12T00:06:33.963Z,17.702784
2018-12-12T00:06:46.335Z,17.702784
2018-12-12T00:06:58.708Z,17.702784
2018-12-12T00:07:11.075Z,9.656064
2018-12-12T00:07:23.471Z,11.265408
2018-12-12T00:07:35.834Z,11.265408
2018-12-12T00:07:48.268Z,11.265408
2018-12-12T00:08:00.632Z,12.874752
2018-12-12T00:08:13.011Z,8.04672
2018-12-12T00:08:25.386Z,12.874752
2018-12-12T00:08:37.801Z,12.874752
2018-12-12T00:08:50.223Z,12.874752
2018-12-12T00:09:02.601Z,12.874752
2018-12-12T00:09:14.978Z,12.874752
2018-12-12T00:09:27.391Z,16.09344
2018-12-12T00:09:39.756Z,16.09344
2018-12-12T00:09:52.130Z,16.09344
2018-12-12T00:10:04.875Z,11.265408
2018-12-12T00:10:17.292Z,16.09344
2018-12-12T00:10:29.673Z,16.09344
2018-12-12T00:10:42.100Z,19.312128
2018-12-12T00:10:54.528Z,19.312128
2018-12-12T00:11:06.922Z,3.218688
2018-12-12T00:11:19.272Z,8.04672
2018-12-12T00:11:31.650Z,8.04672
2018-12-12T00:11:44.023Z,9.656064
2018-12-12T00:11:56.383Z,9.656064
2018-12-12T00:12:08.756Z,6.437376
2018-12-12T00:12:21.122Z,8.04672
2018-12-12T00:12:33.549Z,8.04672
2018-12-12T00:12:45.925Z,8.04672
2018-12-12T00:12:58.295Z,11.265408
2018-12-12T00:13:10.735Z,8.04672
2018-12-12T00:13:23.145Z,8.04672
2018-12-12T00:13:35.504Z,8.04672
2018-12-12T00:13:47.874Z,9.656064
2018-12-12T00:14:00.234Z,9.656064
2018-12-12T00:14:12.589Z,12.874752
2018-12-12T00:14:24.995Z,14.484096
2018-12-12T00:14:37.371Z,14.484096
2018-12-12T00:14:49.798Z,14.484096
2018-12-12T00:15:02.177Z,14.484096
2018-12-12T00:15:14.534Z,9.656064
2018-12-12T00:15:26.918Z,12.874752
2018-12-12T00:15:40.622Z,12.874752
2018-12-12T00:15:53.072Z,12.874752
2018-12-12T00:16:05.511Z,8.04672
2018-12-12T00:16:17.905Z,11.265408
2018-12-12T00:16:30.282Z,12.874752
2018-12-12T00:16:42.640Z,12.874752
2018-12-12T00:16:55.031Z,12.874752
2018-12-12T00:17:07.392Z,6.437376
2018-12-12T00:17:19.752Z,6.437376
2018-12-12T00:17:32.127Z,8.04672
2018-12-12T00:17:44.498Z,8.04672
2018-12-12T00:17:57.006Z,9.656064
2018-12-12T00:18:09.412Z,11.265408
2018-12-12T00:18:21.786Z,11.265408
2018-12-12T00:18:34.204Z,11.265408
2018-12-12T00:18:46.556Z,12.874752
2018-12-12T00:18:59.044Z,12.874752
2018-12-12T00:19:11.408Z,17.702784
2018-12-12T00:19:23.779Z,17.702784
2018-12-12T00:19:36.122Z,17.702784
2018-12-12T00:19:48.565Z,17.702784
2018-12-12T00:20:00.921Z,17.702784
2018-12-12T00:20:13.310Z,11.265408
2018-12-12T00:20:25.683Z,14.484096
2018-12-12T00:20:38.248Z,14.484096
2018-12-12T00:20:50.624Z,14.484096
2018-12-12T00:21:03.057Z,14.484096
2018-12-12T00:21:15.453Z,8.04672
2018-12-12T00:21:27.827Z,11.265408
2018-12-12T00:21:40.177Z,14.484096
2018-12-12T00:21:52.551Z,14.484096
2018-12-12T00:22:04.922Z,11.265408
2018-12-12T00:22:17.394Z,11.265408
2018-12-12T00:22:29.756Z,12.874752
2018-12-12T00:22:42.131Z,14.484096
2018-12-12T00:22:54.822Z,16.09344
2018-12-12T00:23:07.204Z,12.874752
2018-12-12T00:23:19.565Z,14.484096
2018-12-12T00:23:31.929Z,14.484096
2018-12-12T00:23:44.306Z,14.484096
2018-12-12T00:23:56.667Z,14.484096
2018-12-12T00:24:09.037Z,8.04672
2018-12-12T00:24:21.399Z,8.04672
2018-12-12T00:24:33.775Z,8.04672
2018-12-12T00:24:46.139Z,12.874752
2018-12-12T00:24:58.560Z,12.874752
2018-12-12T00:25:11.009Z,11.265408
2018-12-12T00:25:23.373Z,14.484096
2018-12-12T00:25:35.756Z,17.702784
2018-12-12T00:25:48.125Z,17.702784
2018-12-12T00:26:00.476Z,17.702784
2018-12-12T00:26:12.856Z,14.484096
2018-12-12T00:26:25.369Z,14.484096
2018-12-12T00:26:37.733Z,14.484096
2018-12-12T00:26:50.159Z,14.484096
2018-12-12T00:27:02.508Z,17.702784
2018-12-12T00:27:14.933Z,14.484096
2018-12-12T00:27:27.357Z,19.312128
2018-12-12T00:27:39.726Z,20.921472
2018-12-12T00:27:52.098Z,20.921472
2018-12-12T00:28:04.498Z,20.921472
2018-12-12T00:28:16.866Z,14.484096
2018-12-12T00:28:29.250Z,14.484096
2018-12-12T00:28:41.608Z,14.484096
2018-12-12T00:28:53.971Z,14.484096
2018-12-12T00:29:06.457Z,8.04672
2018-12-12T00:29:18.826Z,8.04672
2018-12-12T00:29:31.199Z,8.04672
2018-12-12T00:29:43.553Z,9.656064
2018-12-12T00:29:56.078Z,11.265408
2018-12-12T00:30:08.438Z,8.04672
2018-12-12T00:30:20.809Z,16.09344
2018-12-12T00:30:33.364Z,16.09344
2018-12-12T00:30:45.877Z,16.09344
2018-12-12T00:30:58.264Z,16.09344
2018-12-12T00:31:10.634Z,11.265408
2018-12-12T00:31:23.014Z,11.265408
2018-12-12T00:31:35.408Z,11.265408
2018-12-12T00:31:47.772Z,11.265408
2018-12-12T00:32:00.150Z,11.265408
2018-12-12T00:32:12.523Z,9.656064
2018-12-12T00:32:24.897Z,11.265408
2018-12-12T00:32:37.248Z,14.484096
2018-12-12T00:32:49.598Z,14.484096
2018-12-12T00:33:01.970Z,14.484096
2018-12-12T00:33:14.342Z,9.656064
2018-12-12T00:33:26.770Z,9.656064
2018-12-12T00:33:39.137Z,9.656064
2018-12-12T00:33:51.576Z,11.265408
2018-12-12T00:34:03.924Z,11.265408
2018-12-12T00:34:16.294Z,11.265408
2018-12-12T00:34:28.671Z,11.265408
2018-12-12T00:34:41.122Z,12.874752
2018-12-12T00:34:53.485Z,14.484096
2018-12-12T00:35:05.910Z,11.265408
2018-12-12T00:35:18.267Z,11.265408
2018-12-12T00:35:30.638Z,11.265408
2018-12-12T00:35:44.504Z,11.265408
2018-12-12T00:35:56.898Z,11.265408
2018-12-12T00:36:09.285Z,6.437376
2018-12-12T00:36:21.673Z,14.484096
2018-12-12T00:36:34.046Z,14.484096
2018-12-12T00:36:46.418Z,14.484096
2018-12-12T00:36:58.802Z,14.484096
2018-12-12T00:37:11.338Z,8.04672
2018-12-12T00:37:23.706Z,9.656064
2018-12-12T00:37:36.085Z,9.656064
2018-12-12T00:37:48.468Z,9.656064
2018-12-12T00:38:00.831Z,9.656064
2018-12-12T00:38:13.199Z,3.218688
2018-12-12T00:38:25.556Z,6.437376
2018-12-12T00:38:37.912Z,8.04672
2018-12-12T00:38:50.283Z,8.04672
2018-12-12T00:39:02.643Z,9.656064
2018-12-12T00:39:15.037Z,9.656064
2018-12-12T00:39:27.434Z,9.656064
2018-12-12T00:39:39.804Z,9.656064
2018-12-12T00:39:52.321Z,9.656064
2018-12-12T00:40:04.757Z,9.656064
2018-12-12T00:40:17.117Z,8.04672
2018-12-12T00:40:29.467Z,8.04672
2018-12-12T00:40:41.835Z,11.265408
2018-12-12T00:40:54.211Z,16.09344
2018-12-12T00:41:06.706Z,9.656064
2018-12-12T00:41:19.152Z,9.656064
2018-12-12T00:41:31.507Z,12.874752
2018-12-12T00:41:43.858Z,12.874752
2018-12-12T00:41:56.239Z,12.874752
2018-12-12T00:42:09.045Z,12.874752
2018-12-12T00:42:22.419Z,19.312128
2018-12-12T00:42:34.763Z,19.312128
2018-12-12T00:42:47.131Z,19.312128
2018-12-12T00:42:59.490Z,19.312128
2018-12-12T00:43:11.926Z,12.874752
2018-12-12T00:43:24.297Z,12.874752
2018-12-12T00:43:36.735Z,12.874752
2018-12-12T00:43:49.099Z,12.874752
2018-12-12T00:44:01.549Z,12.874752
2018-12-12T00:44:13.932Z,12.874752
2018-12-12T00:44:26.311Z,12.874752
2018-12-12T00:44:38.897Z,12.874752
2018-12-12T00:44:51.262Z,12.874752
2018-12-12T00:45:03.635Z,12.874752
2018-12-12T00:45:16.006Z,11.265408
2018-12-12T00:45:28.378Z,11.265408
2018-12-12T00:45:40.744Z,11.265408
2018-12-12T00:45:53.110Z,11.265408
2018-12-12T00:46:05.465Z,6.437376
2018-12-12T00:46:17.835Z,6.437376
2018-12-12T00:46:30.204Z,6.437376
2018-12-12T00:46:42.613Z,6.437376
2018-12-12T00:46:54.984Z,8.04672
2018-12-12T00:47:07.353Z,9.656064
2018-12-12T00:47:19.787Z,9.656064
2018-12-12T00:47:32.200Z,9.656064
2018-12-12T00:47:44.562Z,11.265408
2018-12-12T00:47:56.928Z,11.265408
2018-12-12T00:48:09.299Z,11.265408
2018-12-12T00:48:21.647Z,11.265408
2018-12-12T00:48:34.045Z,11.265408
2018-12-12T00:48:46.421Z,11.265408
2018-12-12T00:48:58.781Z,11.265408
2018-12-12T00:49:11.146Z,3.218688
2018-12-12T00:49:23.512Z,3.218688
2018-12-12T00:49:35.948Z,3.218688
2018-12-12T00:49:48.318Z,6.437376
2018-12-12T00:50:00.804Z,8.04672
2018-12-12T00:50:13.173Z,9.656064
2018-12-12T00:50:25.604Z,9.656064
2018-12-12T00:50:37.988Z,9.656064
2018-12-12T00:50:50.415Z,12.874752
2018-12-12T00:51:02.787Z,12.874752
2018-12-12T00:51:15.167Z,14.484096
2018-12-12T00:51:27.550Z,14.484096
2018-12-12T00:51:39.922Z,14.484096
2018-12-12T00:51:52.288Z,14.484096
2018-12-12T00:52:04.800Z,6.437376
2018-12-12T00:52:17.194Z,11.265408
2018-12-12T00:52:29.573Z,11.265408
2018-12-12T00:52:41.929Z,11.265408
2018-12-12T00:52:54.359Z,12.874752
2018-12-12T00:53:06.709Z,4.828032
2018-12-12T00:53:19.110Z,8.04672
2018-12-12T00:53:31.478Z,8.04672
2018-12-12T00:53:43.855Z,8.04672
2018-12-12T00:53:56.212Z,8.04672
2018-12-12T00:54:08.585Z,3.218688
2018-12-12T00:54:21.172Z,8.04672
2018-12-12T00:54:33.524Z,12.874752
2018-12-12T00:54:45.889Z,12.874752
2018-12-12T00:54:58.440Z,12.874752
2018-12-12T00:55:10.797Z,8.04672
2018-12-12T00:55:23.153Z,8.04672
2018-12-12T00:55:35.503Z,9.656064
2018-12-12T00:55:48.787Z,11.265408
2018-12-12T00:56:01.158Z,12.874752
2018-12-12T00:56:13.542Z,11.265408
2018-12-12T00:56:25.925Z,11.265408
2018-12-12T00:56:38.439Z,11.265408
2018-12-12T00:56:50.819Z,11.265408
2018-12-12T00:57:03.161Z,11.265408
2018-12-12T00:57:15.537Z,8.04672
2018-12-12T00:57:27.923Z,8.04672
2018-12-12T00:57:40.280Z,8.04672
2018-12-12T00:57:52.637Z,8.04672
2018-12-12T00:58:05.006Z,3.218688
2018-12-12T00:58:17.384Z,4.828032
2018-12-12T00:58:29.898Z,6.437376
2018-12-12T00:58:42.281Z,12.874752
2018-12-12T00:58:54.661Z,12.874752
2018-12-12T00:59:07.045Z,9.656064
2018-12-12T00:59:19.418Z,11.265408
2018-12-12T00:59:31.780Z,11.265408
2018-12-12T00:59:44.150Z,11.265408
2018-12-12T00:59:56.560Z,11.265408
2018-12-12T01:00:08.955Z,3.218688
2018-12-12T01:00:21.334Z,9.656064
2018-12-12T01:00:33.721Z,12.874752
2018-12-12T01:00:46.081Z,12.874752
2018-12-12T01:00:58.457Z,12.874752
2018-12-12T01:01:10.831Z,9.656064
2018-12-12T01:01:23.192Z,9.656064
2018-12-12T01:01:35.581Z,9.656064
2018-12-12T01:01:47.958Z,9.656064
2018-12-12T01:02:00.381Z,11.265408
2018-12-12T01:02:12.782Z,11.265408
2018-12-12T01:02:25.158Z,11.265408
2018-12-12T01:02:37.670Z,11.265408
2018-12-12T01:02:50.049Z,11.265408
2018-12-12T01:03:02.417Z,11.265408
2018-12-12T01:03:14.784Z,8.04672
2018-12-12T01:03:27.165Z,9.656064
2018-12-12T01:03:39.535Z,9.656064
2018-12-12T01:03:51.896Z,11.265408
2018-12-12T01:04:04.345Z,11.265408
2018-12-12T01:04:16.715Z,11.265408
2018-12-12T01:04:29.093Z,11.265408
2018-12-12T01:04:41.471Z,11.265408
2018-12-12T01:04:53.845Z,11.265408
2018-12-12T01:05:06.239Z,11.265408
2018-12-12T01:05:18.770Z,12.874752
2018-12-12T01:05:31.282Z,12.874752
2018-12-12T01:05:43.656Z,12.874752
2018-12-12T01:05:56.028Z,12.874752
2018-12-12T01:06:08.402Z,6.437376
2018-12-12T01:06:20.783Z,6.437376
2018-12-12T01:06:33.215Z,6.437376
2018-12-12T01:06:45.570Z,6.437376
2018-12-12T01:06:57.928Z,9.656064
2018-12-12T01:07:10.280Z,8.04672
2018-12-12T01:07:22.656Z,8.04672
2018-12-12T01:07:35.316Z,8.04672
2018-12-12T01:07:47.685Z,8.04672
2018-12-12T01:08:00.049Z,8.04672
2018-12-12T01:08:12.409Z,8.04672
2018-12-12T01:08:24.768Z,8.04672
2018-12-12T01:08:37.153Z,8.04672
2018-12-12T01:08:49.523Z,8.04672
2018-12-12T01:09:01.902Z,9.656064
2018-12-12T01:09:14.330Z,8.04672
2018-12-12T01:09:26.689Z,8.04672
2018-12-12T01:09:39.077Z,9.656064
2018-12-12T01:09:51.459Z,9.656064
2018-12-12T01:10:04.018Z,9.656064
2018-12-12T01:10:16.389Z,8.04672
2018-12-12T01:10:28.769Z,9.656064
2018-12-12T01:10:41.132Z,9.656064
2018-12-12T01:10:53.514Z,9.656064
2018-12-12T01:11:05.893Z,6.437376
2018-12-12T01:11:18.267Z,9.656064
2018-12-12T01:11:30.635Z,9.656064
2018-12-12T01:11:43.043Z,9.656064
2018-12-12T01:11:55.422Z,9.656064
2018-12-12T01:12:07.848Z,8.04672
2018-12-12T01:12:20.215Z,16.09344
2018-12-12T01:12:32.610Z,16.09344
2018-12-12T01:12:44.978Z,16.09344
2018-12-12T01:12:57.353Z,16.09344
2018-12-12T01:13:09.877Z,11.265408
2018-12-12T01:13:22.255Z,11.265408
2018-12-12T01:13:34.639Z,11.265408
2018-12-12T01:13:47.010Z,11.265408
2018-12-12T01:13:59.379Z,11.265408
2018-12-12T01:14:11.762Z,6.437376
2018-12-12T01:14:24.144Z,8.04672
2018-12-12T01:14:36.527Z,9.656064
2018-12-12T01:14:48.887Z,12.874752
2018-12-12T01:15:01.481Z,12.874752
2018-12-12T01:15:13.858Z,9.656064
2018-12-12T01:15:26.207Z,9.656064
2018-12-12T01:15:38.580Z,9.656064
2018-12-12T01:15:50.961Z,9.656064
2018-12-12T01:16:03.324Z,11.265408
2018-12-12T01:16:15.703Z,11.265408
2018-12-12T01:16:28.078Z,11.265408
2018-12-12T01:16:40.442Z,11.265408
2018-12-12T01:16:52.794Z,11.265408
2018-12-12T01:17:05.158Z,6.437376
2018-12-12T01:17:17.531Z,6.437376
2018-12-12T01:17:29.900Z,8.04672
2018-12-12T01:17:42.276Z,8.04672
2018-12-12T01:17:54.946Z,11.265408
2018-12-12T01:18:07.344Z,6.437376
2018-12-12T01:18:19.714Z,6.437376
2018-12-12T01:18:32.067Z,11.265408
2018-12-12T01:18:44.476Z,11.265408
2018-12-12T01:18:56.994Z,11.265408
2018-12-12T01:19:09.362Z,3.218688
2018-12-12T01:19:21.718Z,8.04672
2018-12-12T01:19:34.081Z,11.265408
2018-12-12T01:19:46.463Z,11.265408
2018-12-12T01:19:58.823Z,11.265408
2018-12-12T01:20:11.214Z,11.265408
2018-12-12T01:20:23.568Z,11.265408
2018-12-12T01:20:35.952Z,11.265408
2018-12-12T01:20:48.326Z,11.265408
2018-12-12T01:21:00.667Z,11.265408
2018-12-12T01:21:13.041Z,6.437376
2018-12-12T01:21:25.402Z,6.437376
2018-12-12T01:21:37.840Z,6.437376
2018-12-12T01:21:50.223Z,6.437376
2018-12-12T01:22:02.729Z,6.437376
2018-12-12T01:22:15.106Z,9.656064
2018-12-12T01:22:27.746Z,9.656064
2018-12-12T01:22:40.118Z,12.874752
2018-12-12T01:22:52.493Z,12.874752
2018-12-12T01:23:04.868Z,9.656064
2018-12-12T01:23:17.263Z,11.265408
2018-12-12T01:23:29.636Z,11.265408
2018-12-12T01:23:41.996Z,11.265408
2018-12-12T01:23:54.371Z,11.265408
2018-12-12T01:24:06.733Z,8.04672
2018-12-12T01:24:19.294Z,8.04672
2018-12-12T01:24:31.686Z,8.04672
2018-12-12T01:24:44.175Z,9.656064
2018-12-12T01:24:56.535Z,9.656064
2018-12-12T01:25:08.891Z,8.04672
2018-12-12T01:25:21.327Z,8.04672
2018-12-12T01:25:33.671Z,8.04672
2018-12-12T01:25:46.028Z,11.265408
2018-12-12T01:25:58.384Z,11.265408
2018-12-12T01:26:10.756Z,14.484096
2018-12-12T01:26:23.271Z,14.484096
2018-12-12T01:26:35.632Z,14.484096
2018-12-12T01:26:47.988Z,14.484096
2018-12-12T01:27:00.364Z,14.484096
2018-12-12T01:27:12.794Z,8.04672
2018-12-12T01:27:25.159Z,8.04672
2018-12-12T01:27:37.508Z,8.04672
2018-12-12T01:27:49.866Z,8.04672
2018-12-12T01:28:02.225Z,8.04672
2018-12-12T01:28:14.584Z,4.828032
2018-12-12T01:28:26.953Z,8.04672
2018-12-12T01:28:39.313Z,8.04672
2018-12-12T01:28:51.680Z,8.04672
2018-12-12T01:29:04.062Z,4.828032
2018-12-12T01:29:16.419Z,11.265408
2018-12-12T01:29:28.793Z,12.874752
2018-12-12T01:29:41.152Z,12.874752
2018-12-12T01:29:53.695Z,12.874752
2018-12-12T01:30:06.079Z,4.828032
2018-12-12T01:30:18.512Z,4.828032
2018-12-12T01:30:30.938Z,4.828032
2018-12-12T01:30:43.649Z,9.656064
2018-12-12T01:30:56.005Z,9.656064
2018-12-12T01:31:08.376Z,8.04672
2018-12-12T01:31:20.727Z,14.484096
2018-12-12T01:31:33.107Z,14.484096
2018-12-12T01:31:45.471Z,14.484096
2018-12-12T01:31:57.836Z,14.484096
2018-12-12T01:32:10.203Z,6.437376
2018-12-12T01:32:22.739Z,9.656064
2018-12-12T01:32:35.106Z,11.265408
2018-12-12T01:32:47.462Z,14.484096
2018-12-12T01:32:59.948Z,14.484096
2018-12-12T01:33:12.321Z,6.437376
2018-12-12T01:33:24.699Z,8.04672
2018-12-12T01:33:37.065Z,8.04672
2018-12-12T01:33:49.454Z,8.04672
2018-12-12T01:34:01.820Z,8.04672
2018-12-12T01:34:14.183Z,8.04672
2018-12-12T01:34:26.566Z,8.04672
2018-12-12T01:34:38.933Z,8.04672
2018-12-12T01:34:51.296Z,8.04672
2018-12-12T01:35:03.721Z,3.218688
2018-12-12T01:35:16.095Z,6.437376
2018-12-12T01:35:28.475Z,6.437376
2018-12-12T01:35:40.914Z,6.437376
2018-12-12T01:35:53.280Z,6.437376
2018-12-12T01:36:05.651Z,3.218688
2018-12-12T01:36:18.019Z,3.218688
2018-12-12T01:36:30.426Z,3.218688
2018-12-12T01:36:42.796Z,6.437376
2018-12-12T01:36:55.168Z,6.437376
2018-12-12T01:37:07.530Z,3.218688
2018-12-12T01:37:20.045Z,3.218688
2018-12-12T01:37:32.382Z,3.218688
2018-12-12T01:37:44.741Z,3.218688
2018-12-12T01:37:57.120Z,3.218688
2018-12-12T01:38:09.495Z,3.218688
2018-12-12T01:38:21.864Z,3.218688
2018-12-12T01:38:34.231Z,6.437376
2018-12-12T01:38:46.606Z,6.437376
2018-12-12T01:38:58.964Z,6.437376
2018-12-12T01:39:11.331Z,3.218688
2018-12-12T01:39:23.708Z,9.656064
2018-12-12T01:39:36.113Z,9.656064
2018-12-12T01:39:48.620Z,11.265408
2018-12-12T01:40:00.986Z,11.265408
2018-12-12T01:40:13.349Z,6.437376
2018-12-12T01:40:25.718Z,11.265408
2018-12-12T01:40:38.145Z,12.874752
2018-12-12T01:40:50.586Z,16.09344
2018-12-12T01:41:03.306Z,11.265408
2018-12-12T01:41:15.812Z,14.484096
2018-12-12T01:41:28.178Z,14.484096
2018-12-12T01:41:40.540Z,14.484096
2018-12-12T01:41:52.898Z,14.484096
2018-12-12T01:42:05.340Z,8.04672
2018-12-12T01:42:17.828Z,9.656064
2018-12-12T01:42:30.172Z,9.656064
2018-12-12T01:42:42.529Z,9.656064
2018-12-12T01:42:54.896Z,9.656064
2018-12-12T01:43:07.278Z,1.609344
2018-12-12T01:43:19.655Z,9.656064
2018-12-12T01:43:32.029Z,9.656064
2018-12-12T01:43:44.485Z,12.874752
2018-12-12T01:43:56.936Z,12.874752
2018-12-12T01:44:09.418Z,8.04672
2018-12-12T01:44:21.779Z,9.656064
2018-12-12T01:44:34.281Z,9.656064
2018-12-12T01:44:46.707Z,19.312128
2018-12-12T01:44:59.089Z,19.312128
2018-12-12T01:45:11.509Z,11.265408
2018-12-12T01:45:23.881Z,11.265408
2018-12-12T01:45:36.259Z,11.265408
2018-12-12T01:45:48.698Z,11.265408
2018-12-12T01:46:01.089Z,11.265408
2018-12-12T01:46:13.516Z,12.874752
2018-12-12T01:46:25.892Z,12.874752
2018-12-12T01:46:38.258Z,12.874752
2018-12-12T01:46:50.628Z,12.874752
2018-12-12T01:47:02.991Z,11.265408
2018-12-12T01:47:15.354Z,12.874752
2018-12-12T01:47:27.711Z,12.874752
2018-12-12T01:47:40.088Z,12.874752
2018-12-12T01:47:52.472Z,12.874752
2018-12-12T01:48:04.850Z,8.04672
2018-12-12T01:48:17.220Z,8.04672
2018-12-12T01:48:29.597Z,8.04672
2018-12-12T01:48:42.014Z,8.04672
2018-12-12T01:48:54.367Z,9.656064
2018-12-12T01:49:06.741Z,6.437376
2018-12-12T01:49:19.171Z,6.437376
2018-12-12T01:49:31.535Z,6.437376
2018-12-12T01:49:43.902Z,6.437376
2018-12-12T01:49:56.272Z,6.437376
2018-12-12T01:50:08.876Z,4.828032
2018-12-12T01:50:21.309Z,4.828032
2018-12-12T01:50:33.676Z,4.828032
2018-12-12T01:50:46.237Z,6.437376
2018-12-12T01:50:58.605Z,8.04672
2018-12-12T01:51:10.989Z,6.437376
2018-12-12T01:51:23.353Z,9.656064
2018-12-12T01:51:35.719Z,9.656064
2018-12-12T01:51:48.088Z,9.656064
2018-12-12T01:52:00.539Z,9.656064
2018-12-12T01:52:12.903Z,4.828032
2018-12-12T01:52:25.258Z,4.828032
2018-12-12T01:52:37.746Z,4.828032
2018-12-12T01:52:50.104Z,4.828032
2018-12-12T01:53:02.463Z,4.828032
2018-12-12T01:53:14.823Z,3.218688
2018-12-12T01:53:27.184Z,8.04672
2018-12-12T01:53:41.053Z,11.265408
2018-12-12T01:53:53.427Z,11.265408
2018-12-12T01:54:05.784Z,8.04672
2018-12-12T01:54:18.388Z,9.656064
2018-12-12T01:54:30.783Z,9.656064
2018-12-12T01:54:43.153Z,9.656064
2018-12-12T01:54:55.681Z,9.656064
2018-12-12T01:55:08.043Z,6.437376
2018-12-12T01:55:20.397Z,11.265408
2018-12-12T01:55:32.757Z,11.265408
2018-12-12T01:55:45.125Z,11.265408
2018-12-12T01:55:57.605Z,11.265408
2018-12-12T01:56:09.972Z,6.437376
2018-12-12T01:56:22.323Z,6.437376
2018-12-12T01:56:34.705Z,6.437376
2018-12-12T01:56:47.150Z,6.437376
2018-12-12T01:56:59.533Z,6.437376
2018-12-12T01:57:11.913Z,6.437376
2018-12-12T01:57:24.319Z,6.437376
2018-12-12T01:57:36.737Z,6.437376
2018-12-12T01:57:49.115Z,6.437376
2018-12-12T01:58:01.490Z,6.437376
2018-12-12T01:58:13.872Z,6.437376
2018-12-12T01:58:26.691Z,6.437376
2018-12-12T01:58:39.052Z,6.437376
2018-12-12T01:58:51.429Z,6.437376
2018-12-12T01:59:03.819Z,6.437376
2018-12-12T01:59:16.184Z,6.437376
2018-12-12T01:59:28.547Z,6.437376
2018-12-12T01:59:40.993Z,6.437376
2018-12-12T01:59:53.378Z,11.265408
2018-12-12T02:00:05.771Z,16.09344
2018-12-12T02:00:18.153Z,16.09344
2018-12-12T02:00:30.546Z,16.09344
2018-12-12T02:00:42.926Z,16.09344
2018-12-12T02:00:55.320Z,16.09344
2018-12-12T02:01:07.683Z,12.874752
2018-12-12T02:01:20.059Z,12.874752
2018-12-12T02:01:32.423Z,12.874752
2018-12-12T02:01:44.800Z,12.874752
2018-12-12T02:01:57.265Z,12.874752
2018-12-12T02:02:09.628Z,8.04672
2018-12-12T02:02:22.034Z,8.04672
2018-12-12T02:02:34.455Z,8.04672
2018-12-12T02:02:46.839Z,8.04672
2018-12-12T02:02:59.227Z,11.265408
2018-12-12T02:03:11.599Z,11.265408
2018-12-12T02:03:24.004Z,11.265408
2018-12-12T02:03:36.362Z,11.265408
2018-12-12T02:03:48.736Z,11.265408
2018-12-12T02:04:01.107Z,11.265408
2018-12-12T02:04:13.489Z,9.656064
2018-12-12T02:04:25.852Z,12.874752
2018-12-12T02:04:38.211Z,12.874752
2018-12-12T02:04:50.603Z,12.874752
2018-12-12T02:05:02.986Z,8.04672
2018-12-12T02:05:16.244Z,8.04672
2018-12-12T02:05:28.888Z,14.484096
2018-12-12T02:05:41.328Z,14.484096
2018-12-12T02:05:53.697Z,14.484096
2018-12-12T02:06:06.070Z,8.04672
2018-12-12T02:06:18.445Z,12.874752
2018-12-12T02:06:30.810Z,12.874752
2018-12-12T02:06:43.177Z,12.874752
2018-12-12T02:06:55.653Z,12.874752
2018-12-12T02:07:08.024Z,9.656064
2018-12-12T02:07:20.402Z,11.265408
2018-12-12T02:07:32.762Z,11.265408
2018-12-12T02:07:45.121Z,11.265408
2018-12-12T02:07:57.482Z,11.265408
2018-12-12T02:08:09.933Z,8.04672
2018-12-12T02:08:22.354Z,8.04672
2018-12-12T02:08:34.706Z,8.04672
2018-12-12T02:08:48.481Z,8.04672
2018-12-12T02:09:00.856Z,8.04672
2018-12-12T02:09:13.241Z,4.828032
2018-12-12T02:09:25.631Z,6.437376
2018-12-12T02:09:37.997Z,6.437376
2018-12-12T02:09:50.366Z,6.437376
2018-12-12T02:10:02.848Z,1.609344
2018-12-12T02:10:15.216Z,4.828032
2018-12-12T02:10:27.610Z,6.437376
2018-12-12T02:10:39.985Z,6.437376
2018-12-12T02:10:52.392Z,9.656064
2018-12-12T02:11:04.773Z,11.265408
2018-12-12T02:11:17.126Z,11.265408
2018-12-12T02:11:29.502Z,11.265408
2018-12-12T02:11:41.893Z,11.265408
2018-12-12T02:11:54.275Z,14.484096
2018-12-12T02:12:06.655Z,14.484096
2018-12-12T02:12:19.145Z,14.484096
2018-12-12T02:12:31.579Z,14.484096
2018-12-12T02:12:43.939Z,14.484096
2018-12-12T02:12:56.312Z,14.484096
2018-12-12T02:13:08.839Z,8.04672
2018-12-12T02:13:21.228Z,8.04672
2018-12-12T02:13:33.601Z,8.04672
2018-12-12T02:13:45.967Z,9.656064
2018-12-12T02:13:58.341Z,14.484096
2018-12-12T02:14:10.722Z,8.04672
2018-12-12T02:14:23.091Z,8.04672
2018-12-12T02:14:35.480Z,8.04672
2018-12-12T02:14:47.841Z,9.656064
2018-12-12T02:15:00.369Z,9.656064
2018-12-12T02:15:12.741Z,9.656064
2018-12-12T02:15:25.097Z,9.656064
2018-12-12T02:15:37.453Z,11.265408
2018-12-12T02:15:49.830Z,11.265408
2018-12-12T02:16:02.181Z,11.265408
2018-12-12T02:16:14.539Z,11.265408
2018-12-12T02:16:26.893Z,11.265408
2018-12-12T02:16:39.249Z,11.265408
2018-12-12T02:16:51.608Z,11.265408
2018-12-12T02:17:04.044Z,3.218688
2018-12-12T02:17:16.411Z,9.656064
2018-12-12T02:17:28.783Z,11.265408
2018-12-12T02:17:41.204Z,11.265408
2018-12-12T02:17:53.611Z,11.265408
2018-12-12T02:18:05.970Z,8.04672
2018-12-12T02:18:18.329Z,8.04672
2018-12-12T02:18:30.694Z,8.04672
2018-12-12T02:18:43.076Z,9.656064
2018-12-12T02:18:55.604Z,11.265408
2018-12-12T02:19:07.970Z,8.04672
2018-12-12T02:19:20.354Z,8.04672
2018-12-12T02:19:32.729Z,8.04672
2018-12-12T02:19:45.088Z,8.04672
2018-12-12T02:19:57.471Z,8.04672
2018-12-12T02:20:09.845Z,8.04672
2018-12-12T02:20:22.205Z,12.874752
2018-12-12T02:20:34.590Z,12.874752
2018-12-12T02:20:46.966Z,12.874752
2018-12-12T02:20:59.335Z,12.874752
2018-12-12T02:21:11.714Z,8.04672
2018-12-12T02:21:24.090Z,8.04672
2018-12-12T02:21:36.473Z,9.656064
2018-12-12T02:21:48.863Z,9.656064
2018-12-12T02:22:01.234Z,9.656064
2018-12-12T02:22:13.604Z,6.437376
2018-12-12T02:22:25.970Z,6.437376
2018-12-12T02:22:38.362Z,6.437376
2018-12-12T02:22:50.735Z,8.04672
2018-12-12T02:23:03.099Z,4.828032
2018-12-12T02:23:15.447Z,9.656064
2018-12-12T02:23:27.817Z,9.656064
2018-12-12T02:23:40.194Z,9.656064
2018-12-12T02:23:52.588Z,9.656064
2018-12-12T02:24:04.956Z,3.218688
2018-12-12T02:24:17.337Z,4.828032
2018-12-12T02:24:29.696Z,6.437376